Time;durP1;ratioP1;P1;durP2;ratioP2;P2;SDS_P1;SDS_P2;PMS_P1;PMS_P2;Temp;Humidity;BMP_temperature;BMP_pressure;BME280_temperature;BME280_humidity;BME280_pressure;Samples;Min_cycle;Max_cycle;Signal;HPM_P1;HPM_P2
2022/07/26 00:01:06;;;;;;;;;1.00;1.00;;;;;22.46;49.24;101365.50;5080503;28;46128;-65
2022/07/26 00:03:32;;;;;;;;;1.00;1.00;;;;;22.43;49.27;101364.06;5080326;27;45238;-65
2022/07/26 00:05:58;;;;;;;;;1.75;0.75;;;;;22.40;49.60;101364.47;5080407;28;45478;-65
2022/07/26 00:08:24;;;;;;;;;1.00;1.00;;;;;22.37;49.58;101364.88;5080903;27;45550;-65
2022/07/26 00:10:50;;;;;;;;;3.00;2.00;;;;;22.32;49.81;101359.25;5079873;28;46094;-60
2022/07/26 00:13:19;;;;;;;;;0.20;0.20;;;;;22.33;49.81;101367.19;5079271;28;45245;-62
2022/07/26 00:15:45;;;;;;;;;1.60;1.00;;;;;22.30;50.32;101364.06;5078722;27;45254;-60
2022/07/26 00:18:12;;;;;;;;;1.25;1.25;;;;;22.26;50.05;101360.09;5079009;27;45550;-61
2022/07/26 00:20:37;;;;;;;;;3.00;1.40;;;;;22.19;50.18;101356.56;5078466;27;46096;-62
2022/07/26 00:23:03;;;;;;;;;2.50;2.00;;;;;22.22;50.44;101369.69;5078532;27;45239;-65
2022/07/26 00:25:29;;;;;;;;;2.00;0.50;;;;;22.17;50.33;101371.16;5078754;27;45321;-64
2022/07/26 00:27:55;;;;;;;;;3.25;1.50;;;;;22.14;50.11;101371.56;5078891;27;45422;-61
2022/07/26 00:30:20;;;;;;;;;1.40;0.40;;;;;22.11;50.34;101369.22;5078498;27;45262;-65
2022/07/26 00:32:46;;;;;;;;;1.00;1.00;;;;;22.06;49.69;101365.47;5078579;28;45316;-56
2022/07/26 00:35:12;;;;;;;;;2.00;1.00;;;;;22.02;50.45;101362.34;5078323;28;45200;-63
2022/07/26 00:37:37;;;;;;;;;1.75;1.75;;;;;22.03;50.49;101366.72;5079032;27;45620;-58
2022/07/26 00:40:05;;;;;;;;;2.00;0.25;;;;;21.96;50.46;101363.19;5079532;27;46360;-65
2022/07/26 00:42:30;;;;;;;;;1.60;0.80;;;;;21.95;49.95;101369.63;5079836;28;45497;-65
2022/07/26 00:44:56;;;;;;;;;3.00;3.00;;;;;21.91;50.27;101368.38;5079534;27;45371;-58
2022/07/26 00:47:21;;;;;;;;;1.00;1.00;;;;;21.86;50.65;101370.84;5078573;27;45305;-56
2022/07/26 00:49:47;;;;;;;;;2.25;1.25;;;;;21.83;50.36;101368.59;5078178;27;46145;-57
2022/07/26 00:52:12;;;;;;;;;2.50;1.25;;;;;21.76;50.33;101360.44;5078243;27;45460;-62
2022/07/26 00:54:39;;;;;;;;;1.00;1.00;;;;;21.78;50.45;101371.88;5078478;27;45439;-63
2022/07/26 00:57:05;;;;;;;;;3.00;1.75;;;;;21.65;49.88;101353.72;5078591;27;45286;-58
2022/07/26 00:59:31;;;;;;;;;2.50;1.00;;;;;21.74;50.26;101373.34;5078152;28;46049;-60
2022/07/26 01:01:56;;;;;;;;;1.00;1.00;;;;;21.58;50.60;101350.19;5080000;27;45318;-55
2022/07/26 01:04:22;;;;;;;;;0.25;0.25;;;;;21.71;50.96;101375.63;5078259;27;45265;-54
2022/07/26 01:06:48;;;;;;;;;2.00;0.00;;;;;21.68;51.24;101363.34;5078168;27;45498;-61
2022/07/26 01:09:14;;;;;;;;;1.00;1.00;;;;;21.68;50.08;101368.75;5078493;27;46014;-55
2022/07/26 01:11:40;;;;;;;;;2.60;1.20;;;;;21.62;50.70;101356.88;5077971;27;45319;-65
2022/07/26 01:14:05;;;;;;;;;1.75;1.00;;;;;21.61;50.58;101363.31;5078456;27;45480;-58
2022/07/26 01:16:31;;;;;;;;;0.75;0.75;;;;;21.57;51.05;101358.50;5078445;27;45517;-55
2022/07/26 01:18:56;;;;;;;;;0.50;0.50;;;;;21.38;51.22;101339.31;5077831;28;46199;-56
2022/07/26 01:21:26;;;;;;;;;1.00;1.00;;;;;21.52;51.27;101369.13;5077740;28;45536;-65
2022/07/26 01:23:52;;;;;;;;;2.00;0.00;;;;;21.41;51.55;101351.59;5077933;27;45471;-62
2022/07/26 01:26:17;;;;;;;;;2.25;2.00;;;;;21.49;50.94;101361.41;5076697;28;45477;-64
2022/07/26 01:28:43;;;;;;;;;0.50;0.00;;;;;21.45;50.90;101352.00;5077742;27;46130;-65
2022/07/26 01:31:09;;;;;;;;;2.00;0.60;;;;;21.43;51.12;101354.94;5077625;27;45343;-63
2022/07/26 01:33:34;;;;;;;;;2.00;1.00;;;;;21.40;51.34;101356.16;5077797;27;45295;-63
2022/07/26 01:36:00;;;;;;;;;3.75;1.50;;;;;21.38;51.98;101363.66;5077461;27;45359;-63
2022/07/26 01:38:27;;;;;;;;;1.75;0.25;;;;;21.38;51.98;101354.72;5077311;27;47398;-57
2022/07/26 01:40:53;;;;;;;;;0.50;0.00;;;;;21.37;51.78;101353.88;5077507;27;45296;-58
2022/07/26 01:43:18;;;;;;;;;1.75;1.00;;;;;21.36;51.75;101354.94;5077509;27;45384;-65
2022/07/26 01:45:43;;;;;;;;;2.00;2.00;;;;;21.35;51.63;101358.66;5077899;28;45403;-65
2022/07/26 01:48:09;;;;;;;;;4.00;2.00;;;;;21.34;51.74;101359.69;5077319;28;46588;-60
2022/07/26 01:50:36;;;;;;;;;1.50;0.00;;;;;21.27;52.31;101353.38;5077283;28;45470;-64
2022/07/26 01:53:01;;;;;;;;;3.20;1.00;;;;;21.30;52.09;101361.09;5077404;27;45432;-57
2022/07/26 01:55:27;;;;;;;;;1.00;0.00;;;;;21.27;52.69;101357.97;5077564;27;45364;-64
2022/07/26 01:57:53;;;;;;;;;1.00;0.75;;;;;21.24;52.26;101351.09;5080629;27;45346;-57
2022/07/26 02:00:18;;;;;;;;;2.25;1.00;;;;;21.24;51.62;101351.09;5080992;27;45226;-56
2022/07/26 02:02:43;;;;;;;;;1.00;1.00;;;;;21.22;52.21;101358.56;5081138;27;45469;-65
2022/07/26 02:05:10;;;;;;;;;0.00;0.00;;;;;21.21;52.55;101356.06;5081669;27;45168;-55
2022/07/26 02:07:40;;;;;;;;;1.50;1.00;;;;;21.14;52.18;101351.44;5080799;27;46092;-61
2022/07/26 02:10:07;;;;;;;;;3.20;1.80;;;;;21.14;52.93;101353.31;5081217;27;45259;-58
2022/07/26 02:12:33;;;;;;;;;2.80;1.00;;;;;21.11;52.49;101351.03;5081000;27;45293;-62
2022/07/26 02:14:58;;;;;;;;;3.50;1.00;;;;;21.07;52.93;101350.63;5081418;28;45272;-65
2022/07/26 02:17:24;;;;;;;;;5.00;1.00;;;;;21.08;53.48;101354.16;5081303;27;45447;-58
2022/07/26 02:19:50;;;;;;;;;2.00;2.00;;;;;20.99;53.35;101341.84;5080654;27;45201;-55
2022/07/26 02:22:16;;;;;;;;;1.00;1.00;;;;;21.05;53.12;101357.25;5080459;27;45393;-56
2022/07/26 02:24:41;;;;;;;;;1.00;1.00;;;;;21.06;53.15;101358.91;5080877;28;45300;-63
2022/07/26 02:27:07;;;;;;;;;1.00;1.00;;;;;21.01;53.42;101356.81;5080306;27;47132;-63
2022/07/26 02:29:32;;;;;;;;;1.00;1.00;;;;;21.03;53.29;101353.94;5080783;27;45411;-64
2022/07/26 02:31:58;;;;;;;;;4.75;1.25;;;;;21.00;53.17;101355.16;5080658;28;45322;-64
2022/07/26 02:34:24;;;;;;;;;1.00;1.00;;;;;20.98;53.73;101362.59;5080532;27;45422;-63
2022/07/26 02:36:50;;;;;;;;;1.00;1.00;;;;;20.93;53.70;101362.38;5080104;27;45967;-64
2022/07/26 02:39:15;;;;;;;;;1.75;1.00;;;;;20.93;54.31;101359.69;5080219;27;45373;-61
2022/07/26 02:41:41;;;;;;;;;0.50;0.50;;;;;20.92;54.22;101364.25;5081021;27;45364;-63
2022/07/26 02:44:07;;;;;;;;;1.50;1.50;;;;;20.77;54.35;101339.19;5080640;27;45427;-58
2022/07/26 02:46:32;;;;;;;;;2.75;1.00;;;;;20.89;53.67;101353.81;5080000;27;46106;-58
2022/07/26 02:48:59;;;;;;;;;1.00;1.00;;;;;20.87;54.15;101363.19;5080238;27;45371;-65
2022/07/26 02:51:25;;;;;;;;;1.00;1.00;;;;;20.85;54.19;101357.13;5080159;27;45436;-63
2022/07/26 02:53:51;;;;;;;;;0.75;0.75;;;;;20.82;54.22;101361.09;5080229;27;45413;-54
2022/07/26 02:56:16;;;;;;;;;2.00;2.00;;;;;20.80;54.49;101368.56;5080355;27;45776;-65
2022/07/26 02:58:42;;;;;;;;;2.00;2.00;;;;;20.81;54.92;101378.31;5080110;27;45379;-59
2022/07/26 03:01:07;;;;;;;;;2.50;2.00;;;;;20.77;55.01;101376.22;5079986;27;45299;-65
2022/07/26 03:03:32;;;;;;;;;3.50;1.00;;;;;20.74;55.08;101372.06;5080201;28;45365;-64
2022/07/26 03:05:58;;;;;;;;;1.00;1.00;;;;;20.71;55.89;101367.03;5079955;28;47020;-62
2022/07/26 03:08:23;;;;;;;;;1.25;1.25;;;;;20.69;55.10;101371.81;5078531;28;45339;-56
2022/07/26 03:10:49;;;;;;;;;1.00;1.00;;;;;20.68;55.17;101367.44;5079958;27;45296;-61
2022/07/26 03:13:14;;;;;;;;;1.00;1.00;;;;;20.66;55.82;101367.63;5078805;27;45401;-62
2022/07/26 03:15:40;;;;;;;;;1.00;1.00;;;;;20.66;55.34;101364.09;5079661;27;46068;-56
2022/07/26 03:18:05;;;;;;;;;3.50;3.00;;;;;20.61;55.92;101359.28;5079549;28;45371;-56
2022/07/26 03:20:30;;;;;;;;;3.00;2.00;;;;;20.63;55.81;101372.59;5079865;27;45316;-65
2022/07/26 03:22:56;;;;;;;;;5.50;2.50;;;;;20.59;55.74;101369.44;5079751;27;45151;-58
2022/07/26 03:25:21;;;;;;;;;1.00;1.00;;;;;20.57;56.05;101374.22;5079524;27;45287;-60
2022/07/26 03:27:47;;;;;;;;;3.75;2.25;;;;;20.54;56.59;101379.19;5079683;27;45427;-63
2022/07/26 03:30:13;;;;;;;;;2.75;0.00;;;;;20.52;56.47;101379.41;5079525;27;45572;-63
2022/07/26 03:32:39;;;;;;;;;2.50;1.00;;;;;20.51;56.48;101377.72;5079770;27;45458;-62
2022/07/26 03:35:06;;;;;;;;;2.00;1.50;;;;;20.47;56.32;101371.00;5079135;27;45415;-61
2022/07/26 03:37:31;;;;;;;;;5.50;2.00;;;;;20.46;56.36;101372.03;5079108;27;45265;-55
2022/07/26 03:39:56;;;;;;;;;1.25;1.25;;;;;20.48;56.38;101382.63;5079494;27;45319;-58
2022/07/26 03:42:22;;;;;;;;;3.75;1.50;;;;;20.47;56.69;101386.38;5079711;27;45339;-65
2022/07/26 03:44:47;;;;;;;;;1.00;1.00;;;;;20.48;56.30;101388.03;5079176;27;45664;-61
2022/07/26 03:47:12;;;;;;;;;1.75;1.75;;;;;20.49;56.21;101385.19;5079463;27;45333;-65
2022/07/26 03:49:38;;;;;;;;;4.50;2.00;;;;;20.47;56.20;101381.81;5079286;27;45276;-57
2022/07/26 03:52:04;;;;;;;;;1.50;1.50;;;;;20.50;56.02;101381.44;5079417;28;45447;-62
2022/07/26 03:54:29;;;;;;;;;1.00;1.00;;;;;20.54;56.42;101392.72;5079084;27;46196;-64
2022/07/26 03:56:55;;;;;;;;;1.00;1.00;;;;;20.56;55.93;101396.03;5078996;27;45221;-61
2022/07/26 03:59:22;;;;;;;;;1.00;1.00;;;;;20.54;56.48;101390.00;5079360;27;45424;-61
2022/07/26 04:01:49;;;;;;;;;3.00;2.00;;;;;20.64;56.21;101390.47;5079304;27;45234;-59
2022/07/26 04:04:16;;;;;;;;;2.00;2.00;;;;;20.67;56.68;101393.63;5078894;27;45187;-61
2022/07/26 04:06:43;;;;;;;;;2.00;2.00;;;;;20.70;56.17;101389.72;5078678;27;45501;-63
2022/07/26 04:09:08;;;;;;;;;2.25;1.00;;;;;20.75;55.83;101386.41;5079077;27;45319;-55
2022/07/26 04:11:34;;;;;;;;;1.75;1.75;;;;;20.72;56.14;101378.69;5079328;27;45320;-56
2022/07/26 04:13:59;;;;;;;;;2.00;2.00;;;;;20.77;55.52;101382.47;5078834;27;45298;-56
2022/07/26 04:16:25;;;;;;;;;2.00;2.00;;;;;20.78;55.36;101386.84;5078708;27;45341;-61
2022/07/26 04:18:50;;;;;;;;;3.25;2.00;;;;;20.80;55.71;101390.19;5078430;28;45407;-59
2022/07/26 04:21:16;;;;;;;;;2.25;2.00;;;;;20.80;56.05;101389.34;5079189;27;45359;-64
2022/07/26 04:23:41;;;;;;;;;4.50;1.50;;;;;20.80;56.28;101392.06;5077359;28;45878;-64
2022/07/26 04:26:07;;;;;;;;;4.75;1.50;;;;;20.78;56.54;101377.91;5078769;27;45388;-59
2022/07/26 04:28:32;;;;;;;;;3.50;3.00;;;;;20.80;56.28;101390.19;5078847;28;45281;-63
2022/07/26 04:30:59;;;;;;;;;2.25;2.00;;;;;20.84;56.25;101386.03;5078924;27;45360;-63
2022/07/26 04:33:25;;;;;;;;;2.00;2.00;;;;;20.85;55.91;101387.72;5078541;27;46147;-55
2022/07/26 04:35:51;;;;;;;;;4.50;2.75;;;;;20.88;56.72;101391.91;5078389;28;45485;-58
2022/07/26 04:38:17;;;;;;;;;1.50;1.50;;;;;20.90;56.14;101387.16;5078332;27;45478;-61
2022/07/26 04:40:42;;;;;;;;;3.00;3.00;;;;;20.94;56.27;101391.09;5078632;28;45369;-63
2022/07/26 04:43:08;;;;;;;;;4.00;4.00;;;;;20.98;56.31;101388.81;5078308;27;46154;-60
2022/07/26 04:45:34;;;;;;;;;3.25;2.00;;;;;21.01;56.25;101391.13;5078157;27;45361;-63
2022/07/26 04:47:59;;;;;;;;;4.00;4.00;;;;;21.04;56.26;101398.88;5078588;27;45233;-55
2022/07/26 04:50:26;;;;;;;;;2.75;2.75;;;;;20.95;55.94;101390.06;5077297;27;45559;-62
2022/07/26 04:52:53;;;;;;;;;3.25;2.25;;;;;21.03;56.59;101398.03;5077931;27;45422;-61
2022/07/26 04:55:19;;;;;;;;;2.20;1.80;;;;;21.04;56.00;101398.88;5078330;27;45165;-63
2022/07/26 04:57:45;;;;;;;;;6.50;3.00;;;;;21.09;56.32;101408.03;5078083;27;45452;-59
2022/07/26 05:00:12;;;;;;;;;6.25;1.75;;;;;21.11;56.09;101403.28;5078449;27;45363;-55
2022/07/26 05:02:38;;;;;;;;;4.75;1.75;;;;;21.00;56.28;101384.06;5078580;27;46274;-58
2022/07/26 05:05:06;;;;;;;;;4.00;2.75;;;;;21.04;56.36;101390.75;5077837;28;45292;-63
2022/07/26 05:07:46;;;;;;;;;5.50;3.00;;;;;21.15;55.47;101411.81;5078201;27;45323;-61
2022/07/26 05:10:13;;;;;;;;;3.50;2.00;;;;;21.15;56.19;101406.41;5078292;28;45356;-60
2022/07/26 05:12:38;;;;;;;;;3.50;3.50;;;;;21.06;56.29;101402.19;5077894;27;46234;-58
2022/07/26 05:15:05;;;;;;;;;5.75;2.50;;;;;21.16;56.31;101414.34;5077939;27;45460;-57
2022/07/26 05:17:30;;;;;;;;;8.25;5.50;;;;;21.17;56.26;101413.28;5078011;27;45219;-59
2022/07/26 05:19:56;;;;;;;;;3.25;3.00;;;;;21.19;56.29;101421.19;5078035;27;45522;-62
2022/07/26 05:22:21;;;;;;;;;2.00;2.00;;;;;21.21;56.35;101421.00;5077685;27;45915;-60
2022/07/26 05:24:47;;;;;;;;;4.00;3.50;;;;;21.20;56.31;101430.19;5077761;27;45370;-59
2022/07/26 05:27:12;;;;;;;;;7.75;1.50;;;;;21.20;56.53;101422.06;5077765;27;45297;-58
2022/07/26 05:29:37;;;;;;;;;4.00;2.25;;;;;21.20;56.06;101422.88;5077971;28;45206;-58
2022/07/26 05:32:03;;;;;;;;;4.00;3.25;;;;;21.21;56.55;101427.25;5076366;27;46530;-61
2022/07/26 05:34:28;;;;;;;;;3.00;3.00;;;;;21.23;56.45;101425.16;5077425;27;45380;-57
2022/07/26 05:36:54;;;;;;;;;4.25;4.00;;;;;21.26;56.27;101422.06;5077534;27;45233;-60
2022/07/26 05:39:19;;;;;;;;;2.75;2.00;;;;;21.28;56.02;101422.72;5077539;27;45289;-60
2022/07/26 05:41:45;;;;;;;;;3.50;3.50;;;;;21.30;56.11;101427.91;5077580;27;46065;-65
2022/07/26 05:44:10;;;;;;;;;3.50;2.50;;;;;21.34;56.09;101434.63;5077586;28;45234;-63
2022/07/26 05:46:36;;;;;;;;;3.00;2.75;;;;;21.36;56.01;101429.84;5077702;28;45261;-64
2022/07/26 05:49:03;;;;;;;;;4.75;2.50;;;;;21.37;56.25;101429.66;5077910;27;45540;-62
2022/07/26 05:51:29;;;;;;;;;2.00;2.00;;;;;21.38;55.94;101423.22;5077664;27;45962;-57
2022/07/26 05:53:54;;;;;;;;;3.00;2.00;;;;;21.40;56.46;101428.41;5077549;27;45841;-62
2022/07/26 05:56:20;;;;;;;;;2.00;2.00;;;;;21.43;56.54;101430.72;5076320;28;45289;-60
2022/07/26 05:58:45;;;;;;;;;3.50;3.00;;;;;21.43;56.02;101431.56;5078024;28;45400;-62
2022/07/26 06:01:11;;;;;;;;;3.75;2.00;;;;;21.46;55.84;101437.63;5077364;27;47191;-57
2022/07/26 06:03:36;;;;;;;;;3.00;3.00;;;;;21.47;55.58;101431.16;5077489;28;45310;-64
2022/07/26 06:06:01;;;;;;;;;2.00;2.00;;;;;21.45;56.24;101427.81;5077401;27;45377;-65
2022/07/26 06:08:27;;;;;;;;;4.00;3.00;;;;;21.50;55.69;101438.88;5077295;27;45403;-64
2022/07/26 06:10:53;;;;;;;;;5.00;3.00;;;;;21.54;55.86;101432.03;5077081;28;46426;-59
2022/07/26 06:13:19;;;;;;;;;3.00;3.00;;;;;21.59;55.70;101434.97;5077322;27;45478;-63
2022/07/26 06:15:45;;;;;;;;;2.00;2.00;;;;;21.64;55.34;101448.72;5077428;27;45608;-65
2022/07/26 06:18:11;;;;;;;;;3.75;2.00;;;;;21.63;55.55;101436.22;5077380;27;45213;-64
2022/07/26 06:20:41;;;;;;;;;2.00;1.25;;;;;21.62;55.29;101445.38;5076925;27;46095;-55
2022/07/26 06:23:07;;;;;;;;;4.00;3.00;;;;;21.55;55.71;101434.53;5076928;27;45252;-62
2022/07/26 06:25:32;;;;;;;;;3.25;3.00;;;;;21.65;55.34;101458.50;5077149;28;45240;-64
2022/07/26 06:27:58;;;;;;;;;2.75;2.75;;;;;21.62;55.15;101457.06;5077069;27;45405;-64
2022/07/26 06:30:23;;;;;;;;;4.25;2.25;;;;;21.63;55.50;101455.19;5076796;27;45197;-62
2022/07/26 06:32:48;;;;;;;;;6.25;2.75;;;;;21.60;55.62;101456.41;5076589;27;45356;-65
2022/07/26 06:35:14;;;;;;;;;6.25;2.75;;;;;21.61;55.83;101455.34;5076604;27;45446;-56
2022/07/26 06:37:42;;;;;;;;;2.75;2.25;;;;;21.63;55.66;101457.88;5076952;27;45367;-62
2022/07/26 06:40:09;;;;;;;;;5.00;4.00;;;;;21.67;55.53;101461.84;5076755;27;45457;-65
2022/07/26 06:42:34;;;;;;;;;3.00;3.00;;;;;21.70;55.57;101457.91;5077854;27;45399;-63
2022/07/26 06:45:01;;;;;;;;;2.50;2.50;;;;;21.73;55.35;101461.03;5080347;27;45298;-60
2022/07/26 06:47:26;;;;;;;;;3.00;2.50;;;;;21.77;55.62;101456.06;5080428;28;45268;-64
2022/07/26 06:49:52;;;;;;;;;3.75;3.75;;;;;21.85;54.74;101461.28;5080077;28;46128;-65
2022/07/26 06:52:17;;;;;;;;;3.25;2.00;;;;;21.88;55.37;101461.72;5080209;27;45171;-63
2022/07/26 06:54:43;;;;;;;;;2.00;2.00;;;;;21.91;55.18;101455.91;5080147;27;45363;-62
2022/07/26 06:57:08;;;;;;;;;4.00;3.00;;;;;21.91;55.16;101450.50;5080169;27;45316;-64
2022/07/26 06:59:34;;;;;;;;;3.25;2.75;;;;;22.04;54.93;101459.69;5080152;27;45925;-58
2022/07/26 07:02:02;;;;;;;;;7.75;3.00;;;;;22.08;54.54;101469.91;5079955;27;45380;-64
2022/07/26 07:04:28;;;;;;;;;5.50;3.75;;;;;22.06;54.67;101455.72;5080038;27;45369;-60
2022/07/26 07:06:54;;;;;;;;;4.75;2.75;;;;;22.14;54.75;101466.41;5080313;27;45434;-62
2022/07/26 07:09:19;;;;;;;;;4.00;3.50;;;;;22.15;54.09;101462.63;5079506;27;46708;-63
2022/07/26 07:11:45;;;;;;;;;2.50;2.50;;;;;22.19;54.37;101464.94;5079991;27;45427;-58
2022/07/26 07:14:10;;;;;;;;;7.00;3.00;;;;;22.18;54.57;101464.13;5079798;27;45323;-64
2022/07/26 07:16:35;;;;;;;;;3.50;3.50;;;;;22.26;54.26;101468.50;5079990;27;45411;-61
2022/07/26 07:19:00;;;;;;;;;2.50;2.00;;;;;22.26;54.32;101469.34;5079696;27;45496;-56
2022/07/26 07:21:26;;;;;;;;;6.25;3.25;;;;;22.31;54.16;101474.16;5079589;27;45403;-64
2022/07/26 07:23:52;;;;;;;;;4.75;3.50;;;;;22.34;53.82;101479.16;5079867;28;45344;-57
2022/07/26 07:26:18;;;;;;;;;5.00;3.00;;;;;22.34;53.54;101476.44;5080936;27;45280;-58
2022/07/26 07:28:44;;;;;;;;;4.00;2.50;;;;;22.29;53.91;101462.66;5080498;27;46256;-63
2022/07/26 07:31:09;;;;;;;;;3.25;3.25;;;;;22.33;53.71;101464.78;5080547;27;45403;-58
2022/07/26 07:33:35;;;;;;;;;4.25;3.00;;;;;22.38;53.67;101478.53;5081984;28;45362;-61
2022/07/26 07:36:00;;;;;;;;;3.00;2.25;;;;;22.38;53.28;101481.25;5081957;27;45214;-59
2022/07/26 07:38:25;;;;;;;;;4.75;3.00;;;;;22.41;53.35;101482.69;5081064;28;47071;-63
2022/07/26 07:40:51;;;;;;;;;2.75;2.75;;;;;22.45;53.47;101477.69;5081086;27;45337;-64
2022/07/26 07:43:16;;;;;;;;;3.00;1.50;;;;;22.38;53.30;101462.28;5081407;27;45407;-56
2022/07/26 07:45:42;;;;;;;;;1.75;1.75;;;;;22.51;53.13;101476.88;5081085;28;45191;-56
2022/07/26 07:48:07;;;;;;;;;2.00;2.00;;;;;22.58;52.89;101483.94;5080394;27;47469;-56
2022/07/26 07:50:33;;;;;;;;;5.00;4.00;;;;;22.69;52.99;101489.81;5079628;27;45400;-62
2022/07/26 07:52:58;;;;;;;;;3.75;3.75;;;;;22.76;52.58;101477.09;5079779;27;45411;-56
2022/07/26 07:55:24;;;;;;;;;3.00;1.50;;;;;22.80;52.69;101470.22;5079038;28;45356;-55
2022/07/26 07:57:49;;;;;;;;;5.00;2.25;;;;;22.94;51.75;101476.47;5080744;27;46372;-65
2022/07/26 08:00:18;;;;;;;;;3.50;2.25;;;;;23.07;51.59;101480.00;5080856;27;45275;-61
2022/07/26 08:02:43;;;;;;;;;3.00;2.00;;;;;23.20;51.52;101484.56;5079580;27;45270;-61
2022/07/26 08:05:09;;;;;;;;;4.00;3.00;;;;;23.29;51.33;101479.75;5079489;27;45436;-58
2022/07/26 08:07:34;;;;;;;;;5.25;2.75;;;;;23.27;50.75;101471.81;5078946;27;47165;-63
2022/07/26 08:10:00;;;;;;;;;3.50;3.50;;;;;23.41;50.95;101484.31;5079033;27;45232;-58
2022/07/26 08:12:25;;;;;;;;;2.75;2.75;;;;;23.31;50.44;101464.94;5079257;27;45379;-60
2022/07/26 08:14:50;;;;;;;;;2.50;2.50;;;;;23.43;50.56;101481.41;5078236;27;45247;-56
2022/07/26 08:17:16;;;;;;;;;5.75;3.00;;;;;23.44;50.38;101484.94;5078777;27;46306;-61
2022/07/26 08:19:41;;;;;;;;;2.50;2.00;;;;;23.48;49.71;101489.72;5078900;27;45354;-61
2022/07/26 08:22:07;;;;;;;;;4.50;1.75;;;;;23.55;49.60;101486.97;5078878;28;45399;-59
2022/07/26 08:24:33;;;;;;;;;5.00;4.75;;;;;23.59;49.18;101491.75;5078964;27;45413;-58
2022/07/26 08:26:58;;;;;;;;;4.00;2.50;;;;;23.66;48.68;101483.63;5079513;27;46268;-61
2022/07/26 08:29:24;;;;;;;;;2.00;2.00;;;;;23.76;48.69;101489.41;5079023;27;45518;-62
2022/07/26 08:31:49;;;;;;;;;2.50;2.50;;;;;23.91;47.94;101483.72;5078973;27;45371;-59
2022/07/26 08:34:17;;;;;;;;;4.25;2.00;;;;;24.05;47.97;101479.88;5078926;27;45357;-62
2022/07/26 08:36:42;;;;;;;;;5.20;2.20;;;;;24.25;47.15;101487.06;5080277;27;46319;-59
2022/07/26 08:39:08;;;;;;;;;3.25;2.00;;;;;24.35;47.47;101476.53;5079346;28;45285;-58
2022/07/26 08:41:33;;;;;;;;;1.50;1.50;;;;;24.53;46.65;101487.53;5078844;28;45261;-63
2022/07/26 08:44:06;;;;;;;;;3.25;3.00;;;;;24.67;46.23;101488.25;5079282;27;45319;-60
2022/07/26 08:46:35;;;;;;;;;3.20;3.00;;;;;24.82;47.18;101487.94;5078470;27;45486;-59
2022/07/26 08:49:01;;;;;;;;;3.60;1.80;;;;;24.88;45.65;101497.91;5078546;28;45483;-66
2022/07/26 08:51:26;;;;;;;;;5.50;2.00;;;;;24.87;45.45;101478.03;5078409;28;45293;-64
2022/07/26 08:53:57;;;;;;;;;5.00;2.75;;;;;24.98;46.03;101490.06;5078424;28;45201;-57
2022/07/26 08:56:22;;;;;;;;;2.00;2.00;;;;;25.00;45.56;101490.69;5078141;27;46033;-60
2022/07/26 08:58:47;;;;;;;;;3.00;1.25;;;;;25.04;45.67;101488.34;5078176;28;45226;-63
2022/07/26 09:01:14;;;;;;;;;1.50;1.50;;;;;24.98;45.34;101495.50;5078048;27;45313;-57
2022/07/26 09:03:41;;;;;;;;;2.40;1.40;;;;;24.89;45.39;101489.53;5078577;27;45443;-58
2022/07/26 09:06:33;;;;;;;;;3.60;2.20;;;;;24.81;45.74;101494.41;5076873;27;46066;-61
2022/07/26 09:09:11;;;;;;;;;2.00;2.00;;;;;24.75;45.56;101496.16;5076675;28;45362;-62
2022/07/26 09:11:36;;;;;;;;;2.00;1.20;;;;;24.74;45.74;101499.94;5078200;27;45417;-55
2022/07/26 09:14:04;;;;;;;;;4.00;2.50;;;;;24.78;45.78;101503.03;5078538;27;45365;-56
2022/07/26 09:16:30;;;;;;;;;5.80;2.20;;;;;24.79;45.55;101507.44;5078632;27;47150;-64
2022/07/26 09:19:17;;;;;;;;;4.00;1.60;;;;;24.79;45.51;101505.53;5078507;27;45332;-59
2022/07/26 09:21:43;;;;;;;;;3.00;1.80;;;;;24.80;45.69;101514.53;5078128;27;45349;-55
2022/07/26 09:24:09;;;;;;;;;3.50;1.75;;;;;24.75;45.59;101506.19;5078007;27;45388;-60
2022/07/26 09:26:35;;;;;;;;;2.75;2.75;;;;;24.74;45.51;101507.25;5077713;27;46387;-61
2022/07/26 09:29:18;;;;;;;;;3.00;2.25;;;;;24.72;45.61;101506.63;5077699;27;45565;-58
2022/07/26 09:31:44;;;;;;;;;2.60;1.80;;;;;24.75;45.33;101511.66;5077778;27;45163;-59
2022/07/26 09:34:09;;;;;;;;;2.25;2.00;;;;;24.78;44.95;101516.66;5077590;28;45237;-57
2022/07/26 09:36:56;;;;;;;;;3.50;3.00;;;;;24.76;45.01;101513.31;5077276;28;46028;-62
2022/07/26 09:39:21;;;;;;;;;4.20;3.00;;;;;24.78;45.03;101506.59;5076805;27;45312;-60
2022/07/26 09:41:47;;;;;;;;;3.25;1.75;;;;;24.77;44.94;101515.78;5077707;27;45766;-58
2022/07/26 09:44:24;;;;;;;;;4.75;2.50;;;;;24.83;44.95;101514.91;5077672;27;45438;-65
2022/07/26 09:46:57;;;;;;;;;1.40;1.40;;;;;24.93;45.32;101522.56;5077351;27;45503;-58
2022/07/26 09:49:24;;;;;;;;;4.40;3.00;;;;;24.96;44.79;101524.84;5077636;28;45536;-62
2022/07/26 09:51:51;;;;;;;;;3.00;1.80;;;;;24.96;44.86;101526.75;5077750;27;45420;-56
2022/07/26 09:54:32;;;;;;;;;4.00;2.80;;;;;24.98;44.97;101522.72;5077881;27;45401;-58
2022/07/26 09:56:58;;;;;;;;;2.00;1.80;;;;;25.02;44.18;101529.38;5077670;27;45375;-64
2022/07/26 09:59:25;;;;;;;;;5.20;2.00;;;;;25.11;44.04;101521.81;5077366;27;45519;-62
2022/07/26 10:01:54;;;;;;;;;2.60;2.40;;;;;25.19;43.32;101523.41;5077869;28;45311;-59
2022/07/26 10:04:20;;;;;;;;;3.20;2.60;;;;;25.26;43.18;101522.28;5077901;27;45230;-65
2022/07/26 10:06:46;;;;;;;;;2.80;2.00;;;;;25.26;43.02;101529.63;5077122;27;45360;-66
2022/07/26 10:09:13;;;;;;;;;2.00;2.00;;;;;25.16;43.36;101532.00;5077069;27;45277;-55
2022/07/26 10:11:49;;;;;;;;;3.00;3.00;;;;;25.10;43.15;101541.94;5077327;27;45346;-64
2022/07/26 10:14:46;;;;;;;;;2.40;2.00;;;;;25.02;42.75;101531.28;5077276;27;45425;-55
2022/07/26 10:17:27;;;;;;;;;1.80;0.60;;;;;24.88;43.07;101530.56;5077514;27;46236;-54
2022/07/26 10:19:54;;;;;;;;;3.80;2.00;;;;;24.73;42.90;101527.34;5080589;28;45649;-57
2022/07/26 10:22:30;;;;;;;;;2.80;1.60;;;;;24.66;42.51;101534.75;5080660;27;45476;-55
2022/07/26 10:25:16;;;;;;;;;2.00;2.00;;;;;24.61;42.31;101536.25;5080728;27;45483;-62
2022/07/26 10:27:43;;;;;;;;;4.40;1.80;;;;;24.66;42.58;101527.41;5080485;28;45440;-63
2022/07/26 10:30:23;;;;;;;;;2.00;2.00;;;;;24.78;42.41;101527.53;5080464;27;45302;-62
2022/07/26 10:33:14;;;;;;;;;2.80;1.00;;;;;24.94;42.00;101526.13;5080465;27;45269;-56
2022/07/26 10:35:42;;;;;;;;;2.00;2.00;;;;;24.95;41.01;101525.91;5080761;28;45407;-55
2022/07/26 10:38:20;;;;;;;;;2.00;2.00;;;;;24.97;42.05;101534.69;5079112;27;47390;-57
2022/07/26 10:40:56;;;;;;;;;2.20;1.80;;;;;25.05;41.88;101537.13;5080354;27;45331;-59
2022/07/26 10:43:21;;;;;;;;;3.80;2.00;;;;;25.14;42.01;101534.97;5080332;27;45570;-56
2022/07/26 10:45:47;;;;;;;;;1.75;1.75;;;;;25.23;42.18;101530.91;5080615;28;45331;-55
2022/07/26 10:48:17;;;;;;;;;3.00;1.50;;;;;25.37;41.71;101526.19;5080100;27;46090;-62
2022/07/26 10:50:49;;;;;;;;;3.00;2.00;;;;;25.51;41.36;101541.31;5080199;27;45455;-56
2022/07/26 10:53:23;;;;;;;;;2.00;2.00;;;;;25.54;40.82;101529.13;5080226;28;45461;-56
2022/07/26 10:55:56;;;;;;;;;2.00;1.20;;;;;25.68;39.92;101527.91;5080336;27;45200;-58
2022/07/26 10:58:24;;;;;;;;;1.00;1.00;;;;;25.80;39.36;101528.00;5079963;27;45479;-58
2022/07/26 11:01:08;;;;;;;;;2.00;2.00;;;;;25.94;39.98;101525.94;5080000;28;45567;-61
2022/07/26 11:03:38;;;;;;;;;2.00;2.00;;;;;26.07;38.01;101529.31;5080070;27;45320;-58
2022/07/26 11:06:18;;;;;;;;;4.80;1.20;;;;;26.51;38.15;101523.69;5080169;27;45534;-60
2022/07/26 11:08:45;;;;;;;;;1.00;1.00;;;;;26.87;36.40;101518.03;5079869;27;45642;-63
2022/07/26 11:11:11;;;;;;;;;1.00;1.00;;;;;27.16;34.34;101520.09;5079602;27;45280;-64
2022/07/26 11:13:39;;;;;;;;;2.00;1.80;;;;;27.28;34.26;101505.38;5079945;28;45447;-59
2022/07/26 11:16:07;;;;;;;;;3.00;1.00;;;;;27.53;34.38;101516.03;5080116;27;45529;-64
2022/07/26 11:18:34;;;;;;;;;2.00;2.00;;;;;27.64;34.27;101513.50;5079546;27;46350;-62
2022/07/26 11:21:10;;;;;;;;;1.00;1.00;;;;;27.67;34.51;101516.56;5079584;27;45353;-62
2022/07/26 11:23:38;;;;;;;;;1.00;1.00;;;;;27.68;34.39;101510.03;5079781;27;45316;-57